createdAt,value
2019-02-27T00:00:21.815Z,2.80
2019-02-27T00:02:48.967Z,2.80
2019-02-27T00:05:16.121Z,2.80
2019-02-27T00:07:43.308Z,2.80
2019-02-27T00:10:10.644Z,2.70
2019-02-27T00:12:37.781Z,2.60
2019-02-27T00:15:06.056Z,2.60
2019-02-27T00:17:33.203Z,2.70
2019-02-27T00:20:04.067Z,2.70
2019-02-27T00:22:29.445Z,2.70
2019-02-27T00:24:56.587Z,2.80
2019-02-27T00:27:24.050Z,2.80
2019-02-27T00:29:51.280Z,2.80
2019-02-27T00:32:19.174Z,2.70
2019-02-27T00:34:46.594Z,2.70
2019-02-27T00:37:13.880Z,2.70
2019-02-27T00:39:41.036Z,2.80
2019-02-27T00:42:08.181Z,2.90
2019-02-27T00:44:35.382Z,2.90
2019-02-27T00:47:02.533Z,3.00
2019-02-27T00:49:29.863Z,2.90
2019-02-27T00:51:58.657Z,2.90
2019-02-27T00:54:25.795Z,2.90
2019-02-27T00:56:52.957Z,3.00
2019-02-27T00:59:20.135Z,3.00
2019-02-27T01:01:47.978Z,3.00
2019-02-27T01:04:15.203Z,3.00
2019-02-27T01:06:42.441Z,3.00
2019-02-27T01:09:10.284Z,3.00
2019-02-27T01:11:37.475Z,3.00
2019-02-27T01:14:04.650Z,3.00
2019-02-27T01:16:31.768Z,3.10
2019-02-27T01:18:58.945Z,3.00
2019-02-27T01:21:26.102Z,3.10
2019-02-27T01:23:53.349Z,3.10
2019-02-27T01:26:20.525Z,3.10
2019-02-27T01:28:47.664Z,3.00
2019-02-27T01:31:14.928Z,2.90
2019-02-27T01:33:42.093Z,2.80
2019-02-27T01:36:09.245Z,2.80
2019-02-27T01:38:38.143Z,2.80
2019-02-27T01:41:05.386Z,2.90
2019-02-27T01:43:32.524Z,2.90
2019-02-27T01:45:59.688Z,2.80
2019-02-27T01:48:26.832Z,2.70
2019-02-27T01:50:55.204Z,2.50
2019-02-27T01:53:23.073Z,2.30
2019-02-27T01:55:50.264Z,2.20
2019-02-27T01:58:17.408Z,2.10
2019-02-27T02:00:44.571Z,2.10
2019-02-27T02:03:13.683Z,2.10
2019-02-27T02:05:40.704Z,2.10
2019-02-27T02:08:07.844Z,2.10
2019-02-27T02:10:35.148Z,2.00
2019-02-27T02:13:15.147Z,2.00
2019-02-27T02:15:52.401Z,2.00
2019-02-27T02:18:35.274Z,2.00
2019-02-27T02:21:40.530Z,1.90
2019-02-27T02:24:26.403Z,1.80
2019-02-27T02:27:02.916Z,1.70
2019-02-27T02:29:33.682Z,1.60
2019-02-27T02:32:04.430Z,1.50
2019-02-27T02:34:53.088Z,1.60
2019-02-27T02:37:26.800Z,1.50
2019-02-27T02:40:30.868Z,1.40
2019-02-27T02:43:27.436Z,1.30
2019-02-27T02:46:08.623Z,1.30
2019-02-27T02:48:43.203Z,1.20
2019-02-27T02:51:28.978Z,1.10
2019-02-27T02:54:13.574Z,1.00
2019-02-27T02:56:44.559Z,0.90
2019-02-27T02:59:48.551Z,0.70
2019-02-27T03:02:37.238Z,0.70
2019-02-27T03:05:23.346Z,0.70
2019-02-27T03:07:55.695Z,0.60
2019-02-27T03:10:46.128Z,0.50
2019-02-27T03:13:34.750Z,0.60
2019-02-27T03:16:17.576Z,0.60
2019-02-27T03:18:51.119Z,0.60
2019-02-27T03:21:27.326Z,0.50
2019-02-27T03:24:13.523Z,0.50
2019-02-27T03:27:03.876Z,0.60
2019-02-27T03:29:55.189Z,0.70
2019-02-27T03:32:43.202Z,0.90
2019-02-27T03:35:31.234Z,1.00
2019-02-27T03:38:04.700Z,1.20
2019-02-27T03:40:45.036Z,1.40
2019-02-27T03:43:28.606Z,1.60
2019-02-27T03:46:28.048Z,1.90
2019-02-27T03:49:04.882Z,2.20
2019-02-27T03:51:35.619Z,2.40
2019-02-27T03:54:34.581Z,2.50
2019-02-27T03:57:08.274Z,2.60
2019-02-27T03:59:42.442Z,2.60
2019-02-27T04:02:11.616Z,2.60
2019-02-27T04:05:11.199Z,2.50
2019-02-27T04:08:09.067Z,2.50
2019-02-27T04:10:36.650Z,2.60
2019-02-27T04:13:03.790Z,2.60
2019-02-27T04:15:31.044Z,2.60
2019-02-27T04:17:57.903Z,2.50
2019-02-27T04:20:25.151Z,2.40
2019-02-27T04:22:52.363Z,2.30
2019-02-27T04:25:19.491Z,2.20
2019-02-27T04:27:46.634Z,2.10
2019-02-27T04:30:15.683Z,2.00
2019-02-27T04:32:47.639Z,1.90
2019-02-27T04:35:11.827Z,1.80
2019-02-27T04:37:39.023Z,1.70
2019-02-27T04:40:11.055Z,1.60
2019-02-27T04:42:36.003Z,1.50
2019-02-27T04:45:04.306Z,1.50
2019-02-27T04:47:31.477Z,1.50
2019-02-27T04:49:58.617Z,1.40
2019-02-27T04:52:25.776Z,1.30
2019-02-27T04:54:52.916Z,1.20
2019-02-27T04:57:20.079Z,1.10
2019-02-27T04:59:49.692Z,1.10
2019-02-27T05:02:16.295Z,1.10
2019-02-27T05:04:43.463Z,1.00
2019-02-27T05:07:10.671Z,1.00
2019-02-27T05:09:37.853Z,1.00
2019-02-27T05:12:05.048Z,1.10
2019-02-27T05:14:32.207Z,1.10
2019-02-27T05:16:59.735Z,1.10
2019-02-27T05:19:26.908Z,1.20
2019-02-27T05:21:54.039Z,1.30
2019-02-27T05:24:21.246Z,1.40
2019-02-27T05:26:48.399Z,1.30
2019-02-27T05:29:15.889Z,1.20
2019-02-27T05:31:43.157Z,1.30
2019-02-27T05:34:13.592Z,1.20
2019-02-27T05:36:39.240Z,1.10
2019-02-27T05:39:06.508Z,1.00
2019-02-27T05:41:33.776Z,1.00
2019-02-27T05:44:01.057Z,1.00
2019-02-27T05:46:28.287Z,0.90
2019-02-27T05:48:55.532Z,0.90
2019-02-27T05:51:22.704Z,1.00
2019-02-27T05:53:49.902Z,0.90
2019-02-27T05:56:16.940Z,1.00
2019-02-27T05:58:44.073Z,1.10
2019-02-27T06:01:11.345Z,1.20
2019-02-27T06:03:38.535Z,1.10
2019-02-27T06:06:06.762Z,1.10
2019-02-27T06:08:36.722Z,1.10
2019-02-27T06:11:03.137Z,1.20
2019-02-27T06:13:30.525Z,1.40
2019-02-27T06:16:02.722Z,1.60
2019-02-27T06:18:26.629Z,1.80
2019-02-27T06:20:53.827Z,1.80
2019-02-27T06:23:20.965Z,1.90
2019-02-27T06:25:48.144Z,1.90
2019-02-27T06:28:18.483Z,1.90
2019-02-27T06:30:44.472Z,2.00
2019-02-27T06:33:12.340Z,2.20
2019-02-27T06:35:39.617Z,2.30
2019-02-27T06:38:06.893Z,2.30
2019-02-27T06:40:34.084Z,2.40
2019-02-27T06:43:01.228Z,2.60
2019-02-27T06:45:28.486Z,2.70
2019-02-27T06:47:55.651Z,2.80
2019-02-27T06:50:25.124Z,2.90
2019-02-27T06:52:51.751Z,3.20
2019-02-27T06:55:19.012Z,3.50
2019-02-27T06:57:46.176Z,3.70
2019-02-27T07:00:19.698Z,3.60
2019-02-27T07:02:46.855Z,3.60
2019-02-27T07:05:14.154Z,3.80
2019-02-27T07:07:41.377Z,4.00
2019-02-27T07:10:11.066Z,4.50
2019-02-27T07:12:38.323Z,5.30
2019-02-27T07:15:12.791Z,5.80
2019-02-27T07:17:40.498Z,6.30
2019-02-27T07:20:10.632Z,6.60
2019-02-27T07:22:37.791Z,7.00
2019-02-27T07:25:07.730Z,7.40
2019-02-27T07:27:34.996Z,7.70
2019-02-27T07:30:04.895Z,7.70
2019-02-27T07:32:31.589Z,7.70
2019-02-27T07:34:59.263Z,8.10
2019-02-27T07:37:26.437Z,7.80
2019-02-27T07:39:53.571Z,7.60
2019-02-27T07:42:20.727Z,7.30
2019-02-27T07:44:47.918Z,7.60
2019-02-27T07:47:15.106Z,7.60
2019-02-27T07:49:42.352Z,7.60
2019-02-27T07:52:09.493Z,7.90
2019-02-27T07:54:36.632Z,8.00
2019-02-27T07:57:03.850Z,8.60
2019-02-27T07:59:31.099Z,9.20
2019-02-27T08:02:02.078Z,10.00
2019-02-27T08:04:27.313Z,10.70
2019-02-27T08:06:54.455Z,10.70
2019-02-27T08:09:21.638Z,10.90
2019-02-27T08:11:48.837Z,10.90
2019-02-27T08:14:15.980Z,10.80
2019-02-27T08:16:43.141Z,10.70
2019-02-27T08:19:11.567Z,10.80
2019-02-27T08:21:39.526Z,10.80
2019-02-27T08:24:07.594Z,10.90
2019-02-27T08:26:36.459Z,10.90
2019-02-27T08:29:03.939Z,10.70
2019-02-27T08:31:32.091Z,11.00
2019-02-27T08:33:59.292Z,11.60
2019-02-27T08:36:26.434Z,11.60
2019-02-27T08:38:53.659Z,11.80
2019-02-27T08:41:20.954Z,11.90
2019-02-27T08:43:48.199Z,11.60
2019-02-27T08:46:15.384Z,12.70
2019-02-27T08:48:42.633Z,12.90
2019-02-27T08:51:09.818Z,13.10
2019-02-27T08:53:37.192Z,12.80
2019-02-27T08:56:04.331Z,12.70
2019-02-27T08:58:32.985Z,12.80
2019-02-27T09:01:00.748Z,12.30
2019-02-27T09:03:27.925Z,11.80
2019-02-27T09:05:55.061Z,11.80
2019-02-27T09:08:22.338Z,11.60
2019-02-27T09:10:49.499Z,11.80
2019-02-27T09:13:16.649Z,11.70
2019-02-27T09:15:43.806Z,11.80
2019-02-27T09:18:10.943Z,12.00
2019-02-27T09:20:38.157Z,11.70
2019-02-27T09:23:05.377Z,11.70
2019-02-27T09:25:32.522Z,12.30
2019-02-27T09:27:59.687Z,12.70
2019-02-27T09:30:29.358Z,12.90
2019-02-27T09:32:55.787Z,12.70
2019-02-27T09:35:22.957Z,12.00
2019-02-27T09:37:51.380Z,12.10
2019-02-27T09:40:24.817Z,12.40
2019-02-27T09:42:52.994Z,12.80
2019-02-27T09:45:35.301Z,12.50
2019-02-27T09:48:03.571Z,13.20
2019-02-27T09:50:38.394Z,14.20
2019-02-27T09:53:05.640Z,14.30
2019-02-27T09:55:32.791Z,14.10
2019-02-27T09:58:00.316Z,13.00
2019-02-27T10:00:35.374Z,12.90
2019-02-27T10:03:03.335Z,13.50
2019-02-27T10:05:30.661Z,14.60
2019-02-27T10:07:57.803Z,14.60
2019-02-27T10:10:24.952Z,14.80
2019-02-27T10:12:52.150Z,14.40
2019-02-27T10:15:19.323Z,14.60
2019-02-27T10:17:46.479Z,15.00
2019-02-27T10:20:13.669Z,15.20
2019-02-27T10:22:40.803Z,15.50
2019-02-27T10:25:08.727Z,15.40
2019-02-27T10:27:36.769Z,14.50
2019-02-27T10:30:11.553Z,13.80
2019-02-27T10:32:36.683Z,13.40
2019-02-27T10:35:05.293Z,13.20
2019-02-27T10:37:32.457Z,13.50
2019-02-27T10:39:59.710Z,13.70
2019-02-27T10:42:26.840Z,13.40
2019-02-27T10:44:54.070Z,13.50
2019-02-27T10:47:21.199Z,13.60
2019-02-27T10:49:48.356Z,13.60
2019-02-27T10:52:15.515Z,13.50
2019-02-27T10:54:42.737Z,13.30
2019-02-27T10:57:09.898Z,13.00
2019-02-27T10:59:37.145Z,12.80
2019-02-27T11:02:04.334Z,12.60
2019-02-27T11:04:31.479Z,12.60
2019-02-27T11:06:58.726Z,12.30
2019-02-27T11:09:26.691Z,12.00
2019-02-27T11:11:54.499Z,12.00
2019-02-27T11:14:21.974Z,12.10
2019-02-27T11:16:49.248Z,12.20
2019-02-27T11:19:16.765Z,12.40
2019-02-27T11:21:44.429Z,12.60
2019-02-27T11:24:11.571Z,12.90
2019-02-27T11:26:38.714Z,13.10
2019-02-27T11:29:05.894Z,13.90
2019-02-27T11:31:33.144Z,15.20
2019-02-27T11:34:01.150Z,16.00
2019-02-27T11:36:28.369Z,17.40
2019-02-27T11:38:58.829Z,18.50
2019-02-27T11:41:24.524Z,19.30
2019-02-27T11:43:52.743Z,19.60
2019-02-27T11:46:20.000Z,17.80
2019-02-27T11:48:47.208Z,17.70
2019-02-27T11:51:14.350Z,18.30
2019-02-27T11:53:41.492Z,18.70
2019-02-27T11:56:08.697Z,18.60
2019-02-27T11:58:38.459Z,18.80
2019-02-27T12:01:05.067Z,19.10
2019-02-27T12:03:32.457Z,19.00
2019-02-27T12:05:59.678Z,19.10
2019-02-27T12:08:26.951Z,18.70
2019-02-27T12:10:54.161Z,18.90
2019-02-27T12:13:21.307Z,19.00
2019-02-27T12:15:48.440Z,19.40
2019-02-27T12:18:15.664Z,19.60
2019-02-27T12:20:42.807Z,19.60
2019-02-27T12:23:10.725Z,19.80
2019-02-27T12:25:38.031Z,20.10
2019-02-27T12:28:06.680Z,19.90
2019-02-27T12:30:37.132Z,19.20
2019-02-27T12:33:02.887Z,19.60
2019-02-27T12:35:34.077Z,19.80
2019-02-27T12:38:01.327Z,20.30
2019-02-27T12:40:28.557Z,19.20
2019-02-27T12:42:55.771Z,19.50
2019-02-27T12:45:29.745Z,19.60
2019-02-27T12:47:57.284Z,18.90
2019-02-27T12:50:30.861Z,19.30
2019-02-27T12:52:55.820Z,19.00
2019-02-27T12:55:23.355Z,19.00
2019-02-27T12:57:52.346Z,18.70
2019-02-27T13:00:23.379Z,18.80
2019-02-27T13:02:50.619Z,19.30
2019-02-27T13:05:18.865Z,19.20
2019-02-27T13:07:46.038Z,18.80
2019-02-27T13:10:18.739Z,18.90
2019-02-27T13:12:45.881Z,18.10
2019-02-27T13:15:17.892Z,17.60
2019-02-27T13:17:45.036Z,17.60
2019-02-27T13:20:14.689Z,17.40
2019-02-27T13:22:41.988Z,17.10
2019-02-27T13:25:09.138Z,16.40
2019-02-27T13:27:36.316Z,16.50
2019-02-27T13:30:12.939Z,16.70
2019-02-27T13:32:40.101Z,16.60
2019-02-27T13:35:07.490Z,16.30
2019-02-27T13:37:34.784Z,16.20
2019-02-27T13:40:02.362Z,16.20
2019-02-27T13:42:29.610Z,16.30
2019-02-27T13:44:56.757Z,16.20
2019-02-27T13:47:23.951Z,16.20
2019-02-27T13:49:51.112Z,16.20
2019-02-27T13:52:18.249Z,16.40
2019-02-27T13:54:45.517Z,16.30
2019-02-27T13:57:12.726Z,16.00
2019-02-27T13:59:42.170Z,15.90
2019-02-27T14:02:11.183Z,15.80
2019-02-27T14:04:37.886Z,15.80
2019-02-27T14:07:05.031Z,15.80
2019-02-27T14:09:32.169Z,15.80
2019-02-27T14:11:59.472Z,15.70
2019-02-27T14:14:26.588Z,15.80
2019-02-27T14:16:53.751Z,15.80
2019-02-27T14:19:21.343Z,15.60
2019-02-27T14:21:50.000Z,15.60
2019-02-27T14:24:20.314Z,15.50
2019-02-27T14:26:46.139Z,15.70
2019-02-27T14:29:13.284Z,15.90
2019-02-27T14:31:43.441Z,16.10
2019-02-27T14:34:09.410Z,15.90
2019-02-27T14:36:39.390Z,15.60
2019-02-27T14:39:07.423Z,15.40
2019-02-27T14:41:34.595Z,15.10
2019-02-27T14:44:01.799Z,15.00
2019-02-27T14:46:28.940Z,14.90
2019-02-27T14:48:56.122Z,14.90
2019-02-27T14:51:23.263Z,14.60
2019-02-27T14:53:52.649Z,14.60
2019-02-27T14:56:19.516Z,14.50
2019-02-27T14:58:46.765Z,14.40
2019-02-27T15:01:14.501Z,14.30
2019-02-27T15:03:42.218Z,14.20
2019-02-27T15:06:09.370Z,14.10
2019-02-27T15:08:36.573Z,14.10
2019-02-27T15:11:03.755Z,14.10
2019-02-27T15:13:31.000Z,14.00
2019-02-27T15:15:58.184Z,13.90
2019-02-27T15:18:25.812Z,13.80
2019-02-27T15:20:53.081Z,13.60
2019-02-27T15:23:20.516Z,13.60
2019-02-27T15:25:47.770Z,13.50
2019-02-27T15:28:14.916Z,13.40
2019-02-27T15:30:46.413Z,13.30
2019-02-27T15:33:10.963Z,13.30
2019-02-27T15:35:38.108Z,13.20
2019-02-27T15:38:05.276Z,13.10
2019-02-27T15:40:32.427Z,13.00
2019-02-27T15:42:59.617Z,12.90
2019-02-27T15:45:27.556Z,12.90
2019-02-27T15:47:54.702Z,12.40
2019-02-27T15:50:31.716Z,12.70
2019-02-27T15:52:58.960Z,12.60
2019-02-27T15:55:26.153Z,12.50
2019-02-27T15:57:54.138Z,12.40
2019-02-27T16:00:23.022Z,12.40
2019-02-27T16:02:50.341Z,12.30
2019-02-27T16:05:17.582Z,12.20
2019-02-27T16:07:48.516Z,12.20
2019-02-27T16:10:23.903Z,12.10
2019-02-27T16:12:51.271Z,12.00
2019-02-27T16:15:19.827Z,11.90
2019-02-27T16:17:47.111Z,11.80
2019-02-27T16:20:27.290Z,11.70
2019-02-27T16:22:54.668Z,11.70
2019-02-27T16:25:22.742Z,11.50
2019-02-27T16:27:50.063Z,11.40
2019-02-27T16:30:19.648Z,11.40
2019-02-27T16:32:48.651Z,11.30
2019-02-27T16:35:16.073Z,11.20
2019-02-27T16:37:43.347Z,11.20
2019-02-27T16:40:17.370Z,11.10
2019-02-27T16:42:42.669Z,11.00
2019-02-27T16:45:15.074Z,10.90
2019-02-27T16:47:42.346Z,10.90
2019-02-27T16:50:12.540Z,10.90
2019-02-27T16:52:42.218Z,10.80
2019-02-27T16:55:14.077Z,10.70
2019-02-27T16:57:41.349Z,10.70
2019-02-27T17:00:11.784Z,10.60
2019-02-27T17:02:39.082Z,10.60
2019-02-27T17:05:09.471Z,10.50
2019-02-27T17:07:36.827Z,10.50
2019-02-27T17:10:07.709Z,10.40
2019-02-27T17:12:34.954Z,10.40
2019-02-27T17:15:02.256Z,10.30
2019-02-27T17:17:29.520Z,10.30
2019-02-27T17:19:56.859Z,10.20
2019-02-27T17:22:24.125Z,10.20
2019-02-27T17:24:52.174Z,10.10
2019-02-27T17:27:20.515Z,10.20
2019-02-27T17:29:47.766Z,10.20
2019-02-27T17:32:15.040Z,10.10
2019-02-27T17:34:42.326Z,10.10
2019-02-27T17:37:09.591Z,10.10
2019-02-27T17:39:36.902Z,10.10
2019-02-27T17:42:04.197Z,10.10
2019-02-27T17:44:31.450Z,10.10
2019-02-27T17:46:58.781Z,10.10
2019-02-27T17:49:26.201Z,10.00
2019-02-27T17:51:53.601Z,10.00
2019-02-27T17:54:20.868Z,9.90
2019-02-27T17:56:50.019Z,9.90
2019-02-27T17:59:17.192Z,9.80
2019-02-27T18:01:44.449Z,9.80
2019-02-27T18:04:14.160Z,9.70
2019-02-27T18:06:40.780Z,9.60
2019-02-27T18:09:08.503Z,9.60
2019-02-27T18:11:35.793Z,9.50
2019-02-27T18:14:03.113Z,9.50
2019-02-27T18:16:30.370Z,9.40
2019-02-27T18:18:58.830Z,9.30
2019-02-27T18:21:27.739Z,9.20
2019-02-27T18:23:58.948Z,9.20
2019-02-27T18:26:24.555Z,9.20
2019-02-27T18:28:51.847Z,9.20
2019-02-27T18:31:19.114Z,9.10
2019-02-27T18:33:49.453Z,9.20
2019-02-27T18:36:17.513Z,9.10
2019-02-27T18:38:44.865Z,9.10
2019-02-27T18:41:17.473Z,9.00
2019-02-27T18:43:44.978Z,8.90
2019-02-27T18:46:12.401Z,8.80
2019-02-27T18:48:43.524Z,8.90
2019-02-27T18:51:08.939Z,8.80
2019-02-27T18:53:36.330Z,8.80
2019-02-27T18:56:03.707Z,8.80
2019-02-27T18:58:31.049Z,8.80
2019-02-27T19:00:58.329Z,8.80
2019-02-27T19:03:26.369Z,8.80
2019-02-27T19:05:53.715Z,8.70
2019-02-27T19:08:21.006Z,8.80
2019-02-27T19:10:48.275Z,8.60
2019-02-27T19:13:15.660Z,8.60
2019-02-27T19:15:46.317Z,8.60
2019-02-27T19:18:12.614Z,8.60
2019-02-27T19:20:44.406Z,8.50
2019-02-27T19:23:11.687Z,8.50
2019-02-27T19:25:39.427Z,8.50
2019-02-27T19:28:06.716Z,8.40
2019-02-27T19:30:34.761Z,8.30
2019-02-27T19:33:03.384Z,8.30
2019-02-27T19:35:30.809Z,8.30
2019-02-27T19:37:59.611Z,8.30
2019-02-27T19:40:30.068Z,8.40
2019-02-27T19:43:00.674Z,8.30
2019-02-27T19:45:28.325Z,8.30
2019-02-27T19:47:55.928Z,8.30
2019-02-27T19:50:23.242Z,8.30
2019-02-27T19:52:54.881Z,8.20
2019-02-27T19:55:26.246Z,8.10
2019-02-27T19:57:51.531Z,8.10
2019-02-27T20:00:23.933Z,8.10
2019-02-27T20:02:55.188Z,8.10
2019-02-27T20:05:20.964Z,8.10
2019-02-27T20:07:50.405Z,8.10
2019-02-27T20:10:17.421Z,8.10
2019-02-27T20:12:47.787Z,8.10
2019-02-27T20:15:19.336Z,8.00
2019-02-27T20:17:47.097Z,8.00
2019-02-27T20:20:16.862Z,8.00
2019-02-27T20:22:44.112Z,8.10
2019-02-27T20:25:18.008Z,8.10
2019-02-27T20:27:45.513Z,8.00
2019-02-27T20:30:22.054Z,8.00
2019-02-27T20:32:49.469Z,8.10
2019-02-27T20:35:17.339Z,8.10
2019-02-27T20:37:46.148Z,8.10
2019-02-27T20:40:15.176Z,8.20
2019-02-27T20:42:43.781Z,8.20
2019-02-27T20:45:13.112Z,8.10
2019-02-27T20:47:40.374Z,8.10
2019-02-27T20:50:11.077Z,8.20
2019-02-27T20:52:38.328Z,8.20
2019-02-27T20:55:05.876Z,8.10
2019-02-27T20:57:33.153Z,8.10
2019-02-27T21:00:02.466Z,8.10
2019-02-27T21:02:29.501Z,8.20
2019-02-27T21:04:56.743Z,8.20
2019-02-27T21:07:26.208Z,8.10
2019-02-27T21:09:53.104Z,8.20
2019-02-27T21:12:20.366Z,8.10
2019-02-27T21:14:47.614Z,8.10
2019-02-27T21:17:16.493Z,8.10
2019-02-27T21:19:43.981Z,8.00
2019-02-27T21:22:11.238Z,8.10
2019-02-27T21:24:40.576Z,8.10
2019-02-27T21:27:07.664Z,8.00
2019-02-27T21:29:34.945Z,8.00
2019-02-27T21:32:02.372Z,8.00
2019-02-27T21:34:29.706Z,8.00
2019-02-27T21:36:56.927Z,8.00
2019-02-27T21:39:25.179Z,8.00
2019-02-27T21:41:53.067Z,8.00
2019-02-27T21:44:25.470Z,7.90
2019-02-27T21:46:49.395Z,7.90
2019-02-27T21:49:17.048Z,7.80
2019-02-27T21:51:47.736Z,7.80
2019-02-27T21:54:13.409Z,7.80
2019-02-27T21:56:40.659Z,7.90
2019-02-27T21:59:07.946Z,7.80
2019-02-27T22:01:35.195Z,7.80
2019-02-27T22:04:02.487Z,7.90
2019-02-27T22:06:29.720Z,7.80
2019-02-27T22:08:56.992Z,7.90
2019-02-27T22:11:27.131Z,7.80
2019-02-27T22:13:53.345Z,7.90
2019-02-27T22:16:20.672Z,7.90
2019-02-27T22:18:47.985Z,7.90
2019-02-27T22:21:15.260Z,7.90
2019-02-27T22:23:44.872Z,8.00
2019-02-27T22:26:11.643Z,7.80
2019-02-27T22:28:38.920Z,7.80
2019-02-27T22:31:07.574Z,7.80
2019-02-27T22:33:34.977Z,7.80
2019-02-27T22:36:02.232Z,7.90
2019-02-27T22:38:29.564Z,7.90
2019-02-27T22:40:56.835Z,7.90
2019-02-27T22:43:24.116Z,7.80
2019-02-27T22:45:51.421Z,7.80
2019-02-27T22:48:18.675Z,7.70
2019-02-27T22:50:45.942Z,7.70
2019-02-27T22:53:13.211Z,7.70
2019-02-27T22:55:42.296Z,7.60
2019-02-27T22:58:09.555Z,7.60
2019-02-27T23:00:56.119Z,7.50
2019-02-27T23:03:29.571Z,7.60
2019-02-27T23:05:56.883Z,7.60
2019-02-27T23:08:24.336Z,7.50
2019-02-27T23:10:51.593Z,7.70
2019-02-27T23:13:19.056Z,7.80
2019-02-27T23:15:46.307Z,7.70
2019-02-27T23:18:13.565Z,7.80
2019-02-27T23:20:40.971Z,7.90
2019-02-27T23:23:08.231Z,7.90
2019-02-27T23:25:35.480Z,7.80
2019-02-27T23:28:02.752Z,7.80
2019-02-27T23:30:30.029Z,7.80
2019-02-27T23:32:59.380Z,7.90
2019-02-27T23:35:26.340Z,7.90
2019-02-27T23:37:53.611Z,7.80
2019-02-27T23:40:20.988Z,7.90
2019-02-27T23:42:48.261Z,7.90
2019-02-27T23:45:15.510Z,7.90
2019-02-27T23:47:42.787Z,7.90
2019-02-27T23:50:12.065Z,7.90
2019-02-27T23:52:39.399Z,7.90
2019-02-27T23:55:07.084Z,8.00
2019-02-27T23:57:35.617Z,8.00
